Tuesday, October 21, 2014
13:39 UTC
  |  Log In   |  Register Free
Airport Search:

Pedro Bay Airport
(4K0)

Pedro Bay Airport Diagram
No Airport Diagram Available

FAA data valid effective September 18, 2014 - November 13, 2014 (unless otherwise noted).

 
 
 
 
 
 
 
 
 
 
 
 
 
 

Current Aviation Weather for Pedro Bay Airport (4K0)

METAR data is unavailable for 4K0. The nearest METAR location is at PAIL (23.7 nm SW from 4K0).

The most recent METAR observation for PAIL was updated at: 1329
METAR Summary (Translated METAR)
PAIL
211253Z AUTO 35008KT 10SM FEW020 OVC100 M03/M05 A2928 RMK AO2 SLP919 T10331050 TSNO
(23.7 nm SW from 4K0)
PAIL
211253Z AUTO 35008KT 10SM FEW020 OVC100 M03/M05 A2928 RMK AO2 SLP919 T10331050 TSNO
(23.7 nm SW from 4K0)
TAF Summary (Translated TAF)
PAIL
211139Z 2112/2212 01009KT P6SM SCT025 OVC040 FM220600 35012KT P6SM SCT070
PAIL
211139Z 2112/2212 01009KT P6SM SCT025 OVC040 FM220600 35012KT P6SM SCT070
  Airport Weather Conditions for 4K0

Current weather conditions are
not available for 4K0


The nearest NOAA weather station
is at ILI, (23.7 nm SW from 4K0)
  
 Current Weather at ILI
26° F
Overcast
North winds at 9.2 mph
ILI NOAA Radar

Pressure: 29.28 in
Humidity: 88%
Wind: North at 9.2 MPH (8 KT)
Dew Point: 23.0°F
Visibility: 10.00 mi


Airport Weather Forecast for 4K0

Translated METAR and TAF for PAIL
Translated METAR for PAIL (1334 UTC 21 October 2014)
found at http://aviationweather.gov/adds/metars/
 
METAR text: PAIL 211253Z AUTO 35008KT 10SM FEW020 OVC100 M03/M05 A2928 RMK AO2 SLP919 T10331050 TSNO
Conditions at: PAIL (ILIAMNA , AK, US) observed 1253 UTC 21 October 2014
Temperature: -3.3°C (26°F)
Dewpoint: -5.0°C (23°F) [RH = 88%]
Pressure (altimeter): 29.28 inches Hg (991.6 mb)
[Sea-level pressure: 991.9 mb]
Winds: from the N (350 degrees) at 9 MPH (8 knots; 4.2 m/s)
Visibility: 10 or more miles (16+ km)
Ceiling: 10000 feet AGL
Clouds: few clouds at 2000 feet AGL
overcast cloud deck at 10000 feet AGL
Weather: automated observation with no human augmentation;
there may or may not be significant weather present at this time
Translated TAF for PAIL
Forecast for: PAIL (ILIAMNA , AK, US)
TAF Text: PAIL 211139Z 2112/2212 01009KT P6SM SCT025 OVC040
Forecast period: 1200 UTC 21 October 2014 to 0600 UTC 22 October 2014
Forecast type: FROM: standard forecast or significant change
Winds: from the N (10 degrees) at 10 MPH (9 knots; 4.7 m/s)
Visibility: 6 or more miles (10+ km)
Ceiling: 4000 feet AGL
Clouds: scattered clouds at 2500 feet AGL
overcast cloud deck at 4000 feet AGL
Weather: no significant weather forecast for this period
TAF Text: FM220600 35012KT P6SM SCT070
Forecast period: 0600 to 1200 UTC 22 October 2014
Forecast type: FROM: standard forecast or significant change
Winds: from the N (350 degrees) at 14 MPH (12 knots; 6.2 m/s)
Visibility: 6 or more miles (10+ km)
Clouds: scattered clouds at 7000 feet AGL
Weather: no significant weather forecast for this period

Find All Airport Services Find A Hotel Find A Rental Car Find A Golf Course Find A Restaurant $100 Hamburger



FBO's on the Field
FBO Company Facility Photos Services Transportation Aviation Fuel Prices: Prices include tax
Catering Weather Repair Courtesy Rental Type 100LL JetA JetA+ MOGAS 8087
 
Add another FBO Facility Photos Catering Weather Repair Courtesy Rental Type 100LL JetA JetA+ MOGAS 8087
Services Transportation Aviation Fuel Prices: Prices include tax
There are no FBO's currently reporting fuel at 4K0. List your FBO now


model-print
model-print
model-print
model-print